createdAt,value
2023-05-14T00:00:23.735Z,31.51
2023-05-14T00:02:50.420Z,31.45
2023-05-14T00:05:16.837Z,31.50
2023-05-14T00:07:43.196Z,31.62
2023-05-14T00:10:09.585Z,31.55
2023-05-14T00:12:35.925Z,31.69
2023-05-14T00:15:02.312Z,31.91
2023-05-14T00:17:28.695Z,31.87
2023-05-14T00:19:55.076Z,32.04
2023-05-14T00:22:21.397Z,31.83
2023-05-14T00:24:47.776Z,31.87
2023-05-14T00:27:14.087Z,31.68
2023-05-14T00:29:40.414Z,31.80
2023-05-14T00:32:06.784Z,31.76
2023-05-14T00:34:33.102Z,31.83
2023-05-14T00:36:59.500Z,31.98
2023-05-14T00:39:25.858Z,31.93
2023-05-14T00:41:52.190Z,32.12
2023-05-14T00:44:18.502Z,32.29
2023-05-14T00:46:44.849Z,32.10
2023-05-14T00:49:11.206Z,32.14
2023-05-14T00:51:37.517Z,32.07
2023-05-14T00:54:03.884Z,32.11
2023-05-14T00:56:30.206Z,32.18
2023-05-14T00:58:56.583Z,32.40
2023-05-14T01:01:23.038Z,32.32
2023-05-14T01:03:49.542Z,32.33
2023-05-14T01:06:15.935Z,32.41
2023-05-14T01:08:42.339Z,32.11
2023-05-14T01:11:08.636Z,32.48
2023-05-14T01:13:34.970Z,32.48
2023-05-14T01:16:01.352Z,32.54
2023-05-14T01:18:27.676Z,32.48
2023-05-14T01:20:54.051Z,32.51
2023-05-14T01:23:20.432Z,32.41
2023-05-14T01:25:46.745Z,32.42
2023-05-14T01:28:13.137Z,32.58
2023-05-14T01:30:39.596Z,32.60
2023-05-14T01:33:06.015Z,32.49
2023-05-14T01:35:32.340Z,32.70
2023-05-14T01:37:58.744Z,32.59
2023-05-14T01:40:25.973Z,32.75
2023-05-14T01:42:52.491Z,32.77
2023-05-14T01:45:18.875Z,32.99
2023-05-14T01:47:45.289Z,32.88
2023-05-14T01:50:11.685Z,32.71
2023-05-14T01:52:38.464Z,32.73
2023-05-14T01:55:04.773Z,32.94
2023-05-14T01:57:31.087Z,32.84
2023-05-14T01:59:57.462Z,33.08
2023-05-14T02:02:23.817Z,32.87
2023-05-14T02:04:50.147Z,32.98
2023-05-14T02:07:16.530Z,32.81
2023-05-14T02:09:42.858Z,33.04
2023-05-14T02:12:09.222Z,33.06
2023-05-14T02:14:35.583Z,33.02
2023-05-14T02:17:01.922Z,33.30
2023-05-14T02:19:28.264Z,33.11
2023-05-14T02:21:54.632Z,33.31
2023-05-14T02:24:20.944Z,33.27
2023-05-14T02:26:47.298Z,33.29
2023-05-14T02:29:13.666Z,33.46
2023-05-14T02:31:40.174Z,33.52
2023-05-14T02:34:06.505Z,33.44
2023-05-14T02:36:33.274Z,33.70
2023-05-14T02:38:59.588Z,33.62
2023-05-14T02:41:25.899Z,33.67
2023-05-14T02:43:52.248Z,33.61
2023-05-14T02:46:18.624Z,33.85
2023-05-14T02:48:44.987Z,33.60
2023-05-14T02:51:11.354Z,33.67
2023-05-14T02:53:37.677Z,33.86
2023-05-14T02:56:04.019Z,33.74
2023-05-14T02:58:30.380Z,33.95
2023-05-14T03:00:56.761Z,33.83
2023-05-14T03:03:23.515Z,33.70
2023-05-14T03:05:50.443Z,33.94
2023-05-14T03:08:16.764Z,33.76
2023-05-14T03:10:43.082Z,33.77
2023-05-14T03:13:09.447Z,33.76
2023-05-14T03:15:35.779Z,33.95
2023-05-14T03:18:02.267Z,33.82
2023-05-14T03:20:28.719Z,33.76
2023-05-14T03:22:55.042Z,33.89
2023-05-14T03:25:21.364Z,33.97
2023-05-14T03:27:47.708Z,33.98
2023-05-14T03:30:14.061Z,33.78
2023-05-14T03:32:40.421Z,33.97
2023-05-14T03:35:06.833Z,33.73
2023-05-14T03:37:33.157Z,33.79
2023-05-14T03:39:59.467Z,33.84
2023-05-14T03:42:25.836Z,33.66
2023-05-14T03:44:52.156Z,33.75
2023-05-14T03:47:18.503Z,33.68
2023-05-14T03:49:45.179Z,33.59
2023-05-14T03:52:13.071Z,33.80
2023-05-14T03:54:39.388Z,33.87
2023-05-14T03:57:05.763Z,33.79
2023-05-14T03:59:32.082Z,33.89
2023-05-14T04:01:58.404Z,33.95
2023-05-14T04:04:25.824Z,34.09
2023-05-14T04:06:52.185Z,34.24
2023-05-14T04:09:18.569Z,34.16
2023-05-14T04:11:44.958Z,34.32
2023-05-14T04:14:11.323Z,34.19
2023-05-14T04:16:37.688Z,34.11
2023-05-14T04:19:04.247Z,34.01
2023-05-14T04:21:30.587Z,34.04
2023-05-14T04:23:56.951Z,34.00
2023-05-14T04:26:23.372Z,34.21
2023-05-14T04:28:49.708Z,34.00
2023-05-14T04:31:16.076Z,34.20
2023-05-14T04:33:42.464Z,34.27
2023-05-14T04:36:08.822Z,34.26
2023-05-14T04:38:35.162Z,34.15
2023-05-14T04:41:01.535Z,34.28
2023-05-14T04:43:27.856Z,34.22
2023-05-14T04:45:54.194Z,34.37
2023-05-14T04:48:20.574Z,34.70
2023-05-14T04:50:46.895Z,35.05
2023-05-14T04:53:13.213Z,35.05
2023-05-14T04:55:39.661Z,34.66
2023-05-14T04:58:05.998Z,34.63
2023-05-14T05:00:32.330Z,34.56
2023-05-14T05:02:58.841Z,34.55
2023-05-14T05:05:25.300Z,34.43
2023-05-14T05:07:51.626Z,34.60
2023-05-14T05:10:17.973Z,34.29
2023-05-14T05:12:44.313Z,34.63
2023-05-14T05:15:10.631Z,34.73
2023-05-14T05:17:37.071Z,34.67
2023-05-14T05:20:03.431Z,34.71
2023-05-14T05:22:29.762Z,34.62
2023-05-14T05:24:56.268Z,34.60
2023-05-14T05:27:22.576Z,34.64
2023-05-14T05:29:48.930Z,34.45
2023-05-14T05:32:15.307Z,34.48
2023-05-14T05:34:41.619Z,34.33
2023-05-14T05:37:07.998Z,34.37
2023-05-14T05:39:34.362Z,34.35
2023-05-14T05:42:00.664Z,34.23
2023-05-14T05:44:27.111Z,34.06
2023-05-14T05:46:53.592Z,34.09
2023-05-14T05:49:20.001Z,34.20
2023-05-14T05:51:46.328Z,34.08
2023-05-14T05:54:12.689Z,33.86
2023-05-14T05:56:38.993Z,33.79
2023-05-14T05:59:05.333Z,33.79
2023-05-14T06:01:31.688Z,33.61
2023-05-14T06:03:58.032Z,33.50
2023-05-14T06:06:24.354Z,33.48
2023-05-14T06:08:50.721Z,33.43
2023-05-14T06:11:17.112Z,33.20
2023-05-14T06:13:43.457Z,33.15
2023-05-14T06:16:09.878Z,33.15
2023-05-14T06:18:36.290Z,33.11
2023-05-14T06:21:02.611Z,33.14
2023-05-14T06:23:28.978Z,33.13
2023-05-14T06:25:55.307Z,33.00
2023-05-14T06:28:21.623Z,33.05
2023-05-14T06:30:47.954Z,32.85
2023-05-14T06:33:14.313Z,32.59
2023-05-14T06:35:40.613Z,32.72
2023-05-14T06:38:06.973Z,32.58
2023-05-14T06:40:33.349Z,32.46
2023-05-14T06:42:59.659Z,32.54
2023-05-14T06:45:26.024Z,32.39
2023-05-14T06:47:52.474Z,32.26
2023-05-14T06:50:18.837Z,32.18
2023-05-14T06:52:45.191Z,32.26
2023-05-14T06:55:11.527Z,32.15
2023-05-14T06:57:40.483Z,32.09
2023-05-14T07:00:07.088Z,32.14
2023-05-14T07:02:33.448Z,31.94
2023-05-14T07:04:59.820Z,31.94
2023-05-14T07:07:26.179Z,32.03
2023-05-14T07:09:52.501Z,31.85
2023-05-14T07:12:18.834Z,31.84
2023-05-14T07:14:45.192Z,31.62
2023-05-14T07:17:11.572Z,31.52
2023-05-14T07:19:37.900Z,31.52
2023-05-14T07:22:04.350Z,31.94
2023-05-14T07:24:30.665Z,32.04
2023-05-14T07:26:56.977Z,31.95
2023-05-14T07:29:23.371Z,31.93
2023-05-14T07:31:49.780Z,32.04
2023-05-14T07:34:16.135Z,31.74
2023-05-14T07:36:42.480Z,31.66
2023-05-14T07:39:08.797Z,31.60
2023-05-14T07:41:35.119Z,31.57
2023-05-14T07:44:01.478Z,31.60
2023-05-14T07:46:28.029Z,31.57
2023-05-14T07:48:54.366Z,31.51
2023-05-14T07:51:20.794Z,31.33
2023-05-14T07:53:47.098Z,31.23
2023-05-14T07:56:13.424Z,31.32
2023-05-14T07:58:39.911Z,31.19
2023-05-14T08:01:06.251Z,30.80
2023-05-14T08:03:32.649Z,30.74
2023-05-14T08:05:59.111Z,30.65
2023-05-14T08:08:25.443Z,30.55
2023-05-14T08:10:51.807Z,30.34
2023-05-14T08:13:18.224Z,30.34
2023-05-14T08:15:44.540Z,30.22
2023-05-14T08:18:10.916Z,30.30
2023-05-14T08:20:37.332Z,30.07
2023-05-14T08:23:03.642Z,29.93
2023-05-14T08:25:29.957Z,29.93
2023-05-14T08:27:56.339Z,29.47
2023-05-14T08:30:23.242Z,29.28
2023-05-14T08:32:49.869Z,28.88
2023-05-14T08:35:16.249Z,29.03
2023-05-14T08:37:42.558Z,28.80
2023-05-14T08:40:08.891Z,28.42
2023-05-14T08:42:35.265Z,28.45
2023-05-14T08:45:01.586Z,28.52
2023-05-14T08:47:27.943Z,28.28
2023-05-14T08:49:54.337Z,28.13
2023-05-14T08:52:20.651Z,28.15
2023-05-14T08:54:46.982Z,28.43
2023-05-14T08:57:13.353Z,28.05
2023-05-14T08:59:39.687Z,28.03
2023-05-14T09:02:06.008Z,28.16
2023-05-14T09:04:32.367Z,27.96
2023-05-14T09:06:58.682Z,28.19
2023-05-14T09:09:24.996Z,28.00
2023-05-14T09:11:51.445Z,27.79
2023-05-14T09:14:17.769Z,27.91
2023-05-14T09:16:44.252Z,27.50
2023-05-14T09:19:10.791Z,27.78
2023-05-14T09:21:37.155Z,27.92
2023-05-14T09:24:03.476Z,27.70
2023-05-14T09:26:29.830Z,27.54
2023-05-14T09:28:56.134Z,27.36
2023-05-14T09:31:22.533Z,27.19
2023-05-14T09:33:48.910Z,27.19
2023-05-14T09:36:15.228Z,27.59
2023-05-14T09:38:41.537Z,27.23
2023-05-14T09:41:07.923Z,27.23
2023-05-14T09:43:34.242Z,27.24
2023-05-14T09:46:00.586Z,27.19
2023-05-14T09:48:27.082Z,26.96
2023-05-14T09:50:53.495Z,27.26
2023-05-14T09:53:19.818Z,27.22
2023-05-14T09:55:46.192Z,27.44
2023-05-14T09:58:12.518Z,27.19
2023-05-14T10:00:38.862Z,27.31
2023-05-14T10:03:05.254Z,27.13
2023-05-14T10:05:31.628Z,26.98
2023-05-14T10:07:57.980Z,26.87
2023-05-14T10:10:24.594Z,27.28
2023-05-14T10:12:51.135Z,26.93
2023-05-14T10:15:17.450Z,27.23
2023-05-14T10:17:43.833Z,27.21
2023-05-14T10:20:10.200Z,26.79
2023-05-14T10:22:36.526Z,27.05
2023-05-14T10:25:02.918Z,26.69
2023-05-14T10:27:29.282Z,26.70
2023-05-14T10:29:55.603Z,27.26
2023-05-14T10:32:21.977Z,26.51
2023-05-14T10:34:48.309Z,26.68
2023-05-14T10:37:14.634Z,26.54
2023-05-14T10:39:41.008Z,26.51
2023-05-14T10:42:07.336Z,26.63
2023-05-14T10:44:33.660Z,26.63
2023-05-14T10:47:00.045Z,26.68
2023-05-14T10:49:42.468Z,26.74
2023-05-14T10:52:09.593Z,26.70
2023-05-14T10:54:35.899Z,26.70
2023-05-14T10:57:02.233Z,26.76
2023-05-14T10:59:28.719Z,27.00
2023-05-14T11:01:55.157Z,26.67
2023-05-14T11:04:21.571Z,26.48
2023-05-14T11:06:47.961Z,26.58
2023-05-14T11:09:14.318Z,26.34
2023-05-14T11:11:40.624Z,26.22
2023-05-14T11:14:08.502Z,26.42
2023-05-14T11:16:36.415Z,26.28
2023-05-14T11:19:02.869Z,26.27
2023-05-14T11:21:29.315Z,26.62
2023-05-14T11:23:55.700Z,26.18
2023-05-14T11:26:22.066Z,26.20
2023-05-14T11:28:48.465Z,26.63
2023-05-14T11:31:14.815Z,25.73
2023-05-14T11:33:41.178Z,26.02
2023-05-14T11:36:07.533Z,25.99
2023-05-14T11:38:33.870Z,25.47
2023-05-14T11:41:00.191Z,25.59
2023-05-14T11:43:26.602Z,25.52
2023-05-14T11:45:53.034Z,25.68
2023-05-14T11:48:19.441Z,25.66
2023-05-14T11:50:45.797Z,25.71
2023-05-14T11:53:12.117Z,25.71
2023-05-14T11:55:38.430Z,25.85
2023-05-14T11:58:04.795Z,26.20
2023-05-14T12:00:31.095Z,26.14
2023-05-14T12:02:57.467Z,26.07
2023-05-14T12:05:23.918Z,25.98
2023-05-14T12:07:50.244Z,26.08
2023-05-14T12:10:16.567Z,25.95
2023-05-14T12:12:42.953Z,25.51
2023-05-14T12:15:09.276Z,25.79
2023-05-14T12:17:35.664Z,25.47
2023-05-14T12:20:02.068Z,25.98
2023-05-14T12:22:28.388Z,25.83
2023-05-14T12:24:54.727Z,25.81
2023-05-14T12:27:21.104Z,25.64
2023-05-14T12:29:47.429Z,25.69
2023-05-14T12:32:13.734Z,25.72
2023-05-14T12:34:40.114Z,25.61
2023-05-14T12:37:06.464Z,25.65
2023-05-14T12:39:32.800Z,25.42
2023-05-14T12:41:59.168Z,25.95
2023-05-14T12:44:25.497Z,25.91
2023-05-14T12:46:51.868Z,25.80
2023-05-14T12:49:18.281Z,25.83
2023-05-14T12:51:44.588Z,25.75
2023-05-14T12:54:10.926Z,25.46
2023-05-14T12:56:37.285Z,25.80
2023-05-14T12:59:03.639Z,25.72
2023-05-14T13:01:30.050Z,25.67
2023-05-14T13:03:56.475Z,25.72
2023-05-14T13:06:22.825Z,25.58
2023-05-14T13:08:49.137Z,25.17
2023-05-14T13:11:15.510Z,25.52
2023-05-14T13:13:41.855Z,25.32
2023-05-14T13:16:08.176Z,25.42
2023-05-14T13:18:34.574Z,25.35
2023-05-14T13:21:01.318Z,25.43
2023-05-14T13:23:27.632Z,25.34
2023-05-14T13:25:54.002Z,25.63
2023-05-14T13:28:20.319Z,25.60
2023-05-14T13:30:46.671Z,25.94
2023-05-14T13:33:13.097Z,25.83
2023-05-14T13:35:39.492Z,25.61
2023-05-14T13:38:05.814Z,25.68
2023-05-14T13:40:32.189Z,25.63
2023-05-14T13:42:58.499Z,25.63
2023-05-14T13:45:25.069Z,25.26
2023-05-14T13:47:51.881Z,25.31
2023-05-14T13:50:18.239Z,24.84
2023-05-14T13:52:44.547Z,24.88
2023-05-14T13:55:10.927Z,25.26
2023-05-14T13:57:37.261Z,25.00
2023-05-14T14:00:03.585Z,24.97
2023-05-14T14:02:31.861Z,25.00
2023-05-14T14:04:59.260Z,25.55
2023-05-14T14:07:25.597Z,25.50
2023-05-14T14:09:51.984Z,24.92
2023-05-14T14:12:18.364Z,25.75
2023-05-14T14:14:44.725Z,25.86
2023-05-14T14:17:11.100Z,25.97
2023-05-14T14:19:37.428Z,25.43
2023-05-14T14:22:03.747Z,25.08
2023-05-14T14:24:30.109Z,25.05
2023-05-14T14:26:56.425Z,25.35
2023-05-14T14:29:22.757Z,25.61
2023-05-14T14:31:49.133Z,25.91
2023-05-14T14:34:15.471Z,25.63
2023-05-14T14:36:58.166Z,25.59
2023-05-14T14:39:24.532Z,25.64
2023-05-14T14:41:50.852Z,25.31
2023-05-14T14:44:17.253Z,25.31
2023-05-14T14:46:43.605Z,25.54
2023-05-14T14:49:09.925Z,25.57
2023-05-14T14:51:36.282Z,25.65
2023-05-14T14:54:02.603Z,26.23
2023-05-14T14:56:28.940Z,26.27
2023-05-14T14:58:55.302Z,26.36
2023-05-14T15:01:21.725Z,26.50
2023-05-14T15:03:48.159Z,26.33
2023-05-14T15:06:14.586Z,26.69
2023-05-14T15:08:40.920Z,26.43
2023-05-14T15:11:07.312Z,26.53
2023-05-14T15:13:33.694Z,26.54
2023-05-14T15:16:00.001Z,26.56
2023-05-14T15:18:26.356Z,27.06
2023-05-14T15:20:52.792Z,27.00
2023-05-14T15:23:19.103Z,27.33
2023-05-14T15:25:45.431Z,27.09
2023-05-14T15:28:11.796Z,27.28
2023-05-14T15:30:38.196Z,27.48
2023-05-14T15:33:04.646Z,27.68
2023-05-14T15:35:31.092Z,27.77
2023-05-14T15:37:57.474Z,27.67
2023-05-14T15:40:24.018Z,27.89
2023-05-14T15:42:50.565Z,28.14
2023-05-14T15:45:16.901Z,28.09
2023-05-14T15:47:43.254Z,28.44
2023-05-14T15:50:09.641Z,28.38
2023-05-14T15:52:35.953Z,28.29
2023-05-14T15:55:02.281Z,28.45
2023-05-14T15:57:28.641Z,28.63
2023-05-14T15:59:54.972Z,28.50
2023-05-14T16:02:21.287Z,28.93
2023-05-14T16:04:47.686Z,29.09
2023-05-14T16:07:13.999Z,29.06
2023-05-14T16:09:40.305Z,28.95
2023-05-14T16:12:06.696Z,29.08
2023-05-14T16:14:33.022Z,28.77
2023-05-14T16:16:59.348Z,28.85
2023-05-14T16:19:26.039Z,28.69
2023-05-14T16:21:52.359Z,28.73
2023-05-14T16:24:18.665Z,29.17
2023-05-14T16:26:45.014Z,28.98
2023-05-14T16:29:11.349Z,29.11
2023-05-14T16:31:37.729Z,29.11
2023-05-14T16:34:04.095Z,29.32
2023-05-14T16:36:30.403Z,29.66
2023-05-14T16:39:07.166Z,29.36
2023-05-14T16:41:34.358Z,29.32
2023-05-14T16:44:00.677Z,29.74
2023-05-14T16:46:27.043Z,29.94
2023-05-14T16:48:53.491Z,30.21
2023-05-14T16:51:19.878Z,30.35
2023-05-14T16:53:46.185Z,30.39
2023-05-14T16:56:12.564Z,30.31
2023-05-14T16:58:38.890Z,30.48
2023-05-14T17:01:07.343Z,30.75
2023-05-14T17:03:35.730Z,30.84
2023-05-14T17:06:02.040Z,30.81
2023-05-14T17:08:28.629Z,30.97
2023-05-14T17:10:54.971Z,31.01
2023-05-14T17:13:21.296Z,30.53
2023-05-14T17:15:47.637Z,30.44
2023-05-14T17:18:14.065Z,30.53
2023-05-14T17:20:40.485Z,30.76
2023-05-14T17:23:06.768Z,30.70
2023-05-14T17:25:33.136Z,30.57
2023-05-14T17:27:59.450Z,30.94
2023-05-14T17:30:25.798Z,30.87
2023-05-14T17:32:52.280Z,30.90
2023-05-14T17:35:18.667Z,30.76
2023-05-14T17:37:44.958Z,30.83
2023-05-14T17:40:11.327Z,30.96
2023-05-14T17:42:37.631Z,30.99
2023-05-14T17:45:03.948Z,31.37
2023-05-14T17:47:30.428Z,31.04
2023-05-14T17:49:56.818Z,31.35
2023-05-14T17:52:23.154Z,31.56
2023-05-14T17:54:49.548Z,31.46
2023-05-14T17:57:15.871Z,31.73
2023-05-14T17:59:42.211Z,31.59
2023-05-14T18:02:08.559Z,31.62
2023-05-14T18:04:34.877Z,31.85
2023-05-14T18:07:01.194Z,31.82
2023-05-14T18:09:27.561Z,31.66
2023-05-14T18:11:55.476Z,31.58
2023-05-14T18:14:23.168Z,31.65
2023-05-14T18:16:49.650Z,31.75
2023-05-14T18:19:16.024Z,31.85
2023-05-14T18:21:42.341Z,31.97
2023-05-14T18:24:08.758Z,31.87
2023-05-14T18:26:35.060Z,32.02
2023-05-14T18:29:01.381Z,32.10
2023-05-14T18:31:28.076Z,32.08
2023-05-14T18:33:54.597Z,32.21
2023-05-14T18:36:20.941Z,32.23
2023-05-14T18:38:47.319Z,32.42
2023-05-14T18:41:13.634Z,32.34
2023-05-14T18:43:39.951Z,32.44
2023-05-14T18:46:06.316Z,32.58
2023-05-14T18:48:32.632Z,32.58
2023-05-14T18:50:58.943Z,32.59
2023-05-14T18:53:25.320Z,32.40
2023-05-14T18:55:51.637Z,32.51
2023-05-14T18:58:17.955Z,32.80
2023-05-14T19:00:44.304Z,32.83
2023-05-14T19:03:10.784Z,33.00
2023-05-14T19:05:37.195Z,32.93
2023-05-14T19:08:03.549Z,33.02
2023-05-14T19:10:29.865Z,33.00
2023-05-14T19:12:56.202Z,33.32
2023-05-14T19:15:22.805Z,33.42
2023-05-14T19:17:49.547Z,33.44
2023-05-14T19:20:15.891Z,33.42
2023-05-14T19:22:42.262Z,33.30
2023-05-14T19:25:08.586Z,33.39
2023-05-14T19:27:34.894Z,33.55
2023-05-14T19:30:01.273Z,33.69
2023-05-14T19:32:27.633Z,33.94
2023-05-14T19:34:53.997Z,33.86
2023-05-14T19:37:20.360Z,33.53
2023-05-14T19:39:46.662Z,33.82
2023-05-14T19:42:12.976Z,33.57
2023-05-14T19:44:39.396Z,33.80
2023-05-14T19:47:05.772Z,33.73
2023-05-14T19:49:32.130Z,33.81
2023-05-14T19:51:58.552Z,33.81
2023-05-14T19:54:24.890Z,34.13
2023-05-14T19:56:51.189Z,34.07
2023-05-14T19:59:17.597Z,33.86
2023-05-14T20:01:44.051Z,34.13
2023-05-14T20:04:10.414Z,34.10
2023-05-14T20:06:36.785Z,34.25
2023-05-14T20:09:03.105Z,34.11
2023-05-14T20:11:29.436Z,34.19
2023-05-14T20:13:55.799Z,34.02
2023-05-14T20:16:22.146Z,34.29
2023-05-14T20:18:48.553Z,34.13
2023-05-14T20:21:14.944Z,34.12
2023-05-14T20:23:41.325Z,34.31
2023-05-14T20:26:07.647Z,34.37
2023-05-14T20:28:34.063Z,34.37
2023-05-14T20:31:00.513Z,34.99
2023-05-14T20:33:26.886Z,34.88
2023-05-14T20:35:53.264Z,34.63
2023-05-14T20:38:19.602Z,34.43
2023-05-14T20:40:45.944Z,34.88
2023-05-14T20:43:12.321Z,34.77
2023-05-14T20:45:38.637Z,34.69
2023-05-14T20:48:04.991Z,34.55
2023-05-14T20:50:31.381Z,34.43
2023-05-14T20:52:57.724Z,34.40
2023-05-14T20:55:24.324Z,34.92
2023-05-14T20:57:50.817Z,34.84
2023-05-14T21:00:17.135Z,34.70
2023-05-14T21:02:43.615Z,34.74
2023-05-14T21:05:10.155Z,34.67
2023-05-14T21:07:36.482Z,35.01
2023-05-14T21:10:02.829Z,34.67
2023-05-14T21:12:29.199Z,34.80
2023-05-14T21:14:55.531Z,34.70
2023-05-14T21:17:21.896Z,34.77
2023-05-14T21:19:48.306Z,34.85
2023-05-14T21:22:14.631Z,34.73
2023-05-14T21:24:41.018Z,34.88
2023-05-14T21:27:07.389Z,34.66
2023-05-14T21:29:33.713Z,34.58
2023-05-14T21:32:00.153Z,34.64
2023-05-14T21:34:26.638Z,34.62
2023-05-14T21:36:52.990Z,34.63
2023-05-14T21:39:19.334Z,35.24
2023-05-14T21:41:45.702Z,35.10
2023-05-14T21:44:12.015Z,34.71
2023-05-14T21:46:38.328Z,34.74
2023-05-14T21:49:04.962Z,35.05
2023-05-14T21:51:31.359Z,34.89
2023-05-14T21:53:57.656Z,35.26
2023-05-14T21:56:24.031Z,34.93
2023-05-14T21:58:50.344Z,34.86
2023-05-14T22:01:16.688Z,35.09
2023-05-14T22:03:43.087Z,35.14
2023-05-14T22:06:09.477Z,35.74
2023-05-14T22:08:35.815Z,35.57
2023-05-14T22:11:02.189Z,35.79
2023-05-14T22:13:28.516Z,35.75
2023-05-14T22:16:01.490Z,35.78
2023-05-14T22:18:38.333Z,35.88
2023-05-14T22:21:04.687Z,35.82
2023-05-14T22:23:31.015Z,35.61
2023-05-14T22:25:57.397Z,35.63
2023-05-14T22:28:23.735Z,35.58
2023-05-14T22:30:50.072Z,35.57
2023-05-14T22:33:16.439Z,35.72
2023-05-14T22:35:42.751Z,35.60
2023-05-14T22:38:09.063Z,35.47
2023-05-14T22:40:35.454Z,35.63
2023-05-14T22:43:01.778Z,35.47
2023-05-14T22:45:28.100Z,35.61
2023-05-14T22:47:54.521Z,35.63
2023-05-14T22:50:20.876Z,35.62
2023-05-14T22:52:47.187Z,35.72
2023-05-14T22:55:13.557Z,35.54
2023-05-14T22:57:39.859Z,35.74
2023-05-14T23:00:06.158Z,35.50
2023-05-14T23:02:32.540Z,35.63
2023-05-14T23:04:58.862Z,35.89
2023-05-14T23:07:25.215Z,35.83
2023-05-14T23:09:51.556Z,36.20
2023-05-14T23:12:17.860Z,36.19
2023-05-14T23:14:44.214Z,36.07
2023-05-14T23:17:10.567Z,35.96
2023-05-14T23:19:36.925Z,36.11
2023-05-14T23:22:03.279Z,36.15
2023-05-14T23:24:29.640Z,35.93
2023-05-14T23:26:55.954Z,36.11
2023-05-14T23:29:22.275Z,36.14
2023-05-14T23:31:48.711Z,36.12
2023-05-14T23:34:15.076Z,36.19
2023-05-14T23:36:41.386Z,36.16
2023-05-14T23:39:07.745Z,35.96
2023-05-14T23:41:34.065Z,35.82
2023-05-14T23:44:00.388Z,35.87
2023-05-14T23:46:26.797Z,35.74
2023-05-14T23:48:53.227Z,35.95
2023-05-14T23:51:19.558Z,35.72
2023-05-14T23:53:45.918Z,36.07
2023-05-14T23:56:12.241Z,35.89
2023-05-14T23:58:38.552Z,35.85
